Time;durP1;ratioP1;P1;durP2;ratioP2;P2;SDS_P1;SDS_P2;PMS_P1;PMS_P2;Temp;Humidity;BMP_temperature;BMP_pressure;BME280_temperature;BME280_humidity;BME280_pressure;Samples;Min_cycle;Max_cycle;Signal;HPM_P1;HPM_P2
2022/07/16 00:02:38;;;;;;;7.60;3.42;;;;;;;;;;4953491;28;20121;-69
2022/07/16 00:05:05;;;;;;;6.10;3.20;;;;;;;;;;4993936;28;20031;-69
2022/07/16 00:07:31;;;;;;;5.78;3.25;;;;;;;;;;4994193;28;20027;-70
2022/07/16 00:09:58;;;;;;;6.75;3.42;;;;;;;;;;4994127;28;20065;-69
2022/07/16 00:12:24;;;;;;;6.63;3.40;;;;;;;;;;4996299;28;20065;-69
2022/07/16 00:14:50;;;;;;;6.55;3.30;;;;;;;;;;4997813;28;20030;-69
2022/07/16 00:17:16;;;;;;;5.65;3.22;;;;;;;;;;4997505;28;20504;-69
2022/07/16 00:19:42;;;;;;;6.63;3.42;;;;;;;;;;4997491;28;20034;-69
2022/07/16 00:22:08;;;;;;;6.80;3.35;;;;;;;;;;4998191;28;20026;-69
2022/07/16 00:24:35;;;;;;;6.97;3.55;;;;;;;;;;4997431;28;20472;-70
2022/07/16 00:27:01;;;;;;;8.95;3.42;;;;;;;;;;4997657;28;20030;-69
2022/07/16 00:29:27;;;;;;;7.55;3.75;;;;;;;;;;4997208;28;20042;-70
2022/07/16 00:31:54;;;;;;;8.20;3.47;;;;;;;;;;4997252;28;20500;-69
2022/07/16 00:34:20;;;;;;;8.20;3.67;;;;;;;;;;4997223;28;20023;-69
2022/07/16 00:36:47;;;;;;;8.23;3.53;;;;;;;;;;4997177;28;20050;-69
2022/07/16 00:39:13;;;;;;;9.90;3.50;;;;;;;;;;4997456;28;20059;-69
2022/07/16 00:41:41;;;;;;;7.55;3.70;;;;;;;;;;4997339;28;20109;-69
2022/07/16 00:44:08;;;;;;;6.38;3.10;;;;;;;;;;4997040;28;20081;-69
2022/07/16 00:46:34;;;;;;;8.55;3.67;;;;;;;;;;4997313;28;20022;-69
2022/07/16 00:49:00;;;;;;;8.02;3.60;;;;;;;;;;4997397;28;20062;-69
2022/07/16 00:51:27;;;;;;;6.97;3.58;;;;;;;;;;4997198;28;20018;-69
2022/07/16 00:53:53;;;;;;;8.15;3.72;;;;;;;;;;4996878;28;20381;-69
2022/07/16 00:56:19;;;;;;;7.65;3.83;;;;;;;;;;4997109;28;20022;-69
2022/07/16 00:58:47;;;;;;;6.50;3.10;;;;;;;;;;4979249;28;20037;-69
2022/07/16 01:01:13;;;;;;;6.90;3.22;;;;;;;;;;4996984;28;20053;-69
2022/07/16 01:03:40;;;;;;;5.88;3.00;;;;;;;;;;4996602;28;20464;-69
2022/07/16 01:06:07;;;;;;;9.15;3.50;;;;;;;;;;4996931;28;20026;-69
2022/07/16 01:08:34;;;;;;;6.13;3.38;;;;;;;;;;4996594;28;20034;-69
2022/07/16 01:11:01;;;;;;;5.95;3.38;;;;;;;;;;4996837;28;20022;-69
2022/07/16 01:13:27;;;;;;;7.07;3.38;;;;;;;;;;4996802;28;20022;-69
2022/07/16 01:15:53;;;;;;;6.70;3.55;;;;;;;;;;4996434;28;20023;-69
2022/07/16 01:18:19;;;;;;;6.82;3.70;;;;;;;;;;4996422;28;20061;-69
2022/07/16 01:20:45;;;;;;;10.05;3.60;;;;;;;;;;4996355;28;20400;-69
2022/07/16 01:23:16;;;;;;;8.38;3.63;;;;;;;;;;4996178;28;20033;-69
2022/07/16 01:25:42;;;;;;;7.13;3.40;;;;;;;;;;4996604;28;20073;-69
2022/07/16 01:28:08;;;;;;;5.85;3.80;;;;;;;;;;4996173;28;20022;-69
2022/07/16 01:30:34;;;;;;;6.13;3.25;;;;;;;;;;4996202;28;20018;-69
2022/07/16 01:33:00;;;;;;;9.60;3.90;;;;;;;;;;4996169;28;20022;-69
2022/07/16 01:35:26;;;;;;;6.18;3.17;;;;;;;;;;4996107;28;20029;-69
2022/07/16 01:37:52;;;;;;;8.05;3.70;;;;;;;;;;4996319;28;20487;-69
2022/07/16 01:40:19;;;;;;;5.95;3.60;;;;;;;;;;4996026;28;20377;-69
2022/07/16 01:42:45;;;;;;;6.75;3.60;;;;;;;;;;4995994;28;20028;-69
2022/07/16 01:45:11;;;;;;;7.53;3.95;;;;;;;;;;4996206;28;20026;-69
2022/07/16 01:47:37;;;;;;;6.32;3.50;;;;;;;;;;4996156;28;20110;-69
2022/07/16 01:50:03;;;;;;;8.93;3.72;;;;;;;;;;4995784;28;20022;-69
2022/07/16 01:52:29;;;;;;;9.25;4.00;;;;;;;;;;4996361;28;20029;-69
2022/07/16 01:54:55;;;;;;;7.93;3.55;;;;;;;;;;4996013;28;20022;-69
2022/07/16 01:57:22;;;;;;;9.85;3.58;;;;;;;;;;4995737;28;20034;-69
2022/07/16 01:59:48;;;;;;;7.28;4.07;;;;;;;;;;4995639;28;20026;-69
2022/07/16 02:02:14;;;;;;;8.70;3.40;;;;;;;;;;4995951;28;20432;-69
2022/07/16 02:04:41;;;;;;;6.75;3.55;;;;;;;;;;4995599;28;20042;-69
2022/07/16 02:07:07;;;;;;;8.40;3.80;;;;;;;;;;4995801;28;20105;-70
2022/07/16 02:09:34;;;;;;;6.88;3.90;;;;;;;;;;4995457;28;20070;-69
2022/07/16 02:12:00;;;;;;;6.15;3.13;;;;;;;;;;4995457;28;20397;-69
2022/07/16 02:14:26;;;;;;;6.20;3.20;;;;;;;;;;4995454;28;20058;-69
2022/07/16 02:16:52;;;;;;;7.05;3.63;;;;;;;;;;4995597;28;20073;-69
2022/07/16 02:19:18;;;;;;;6.25;3.38;;;;;;;;;;4995620;28;20030;-69
2022/07/16 02:21:44;;;;;;;6.78;2.90;;;;;;;;;;4995762;28;20022;-69
2022/07/16 02:24:10;;;;;;;9.43;3.38;;;;;;;;;;4995248;28;20472;-69
2022/07/16 02:26:36;;;;;;;7.05;3.70;;;;;;;;;;4995156;28;20030;-69
2022/07/16 02:29:02;;;;;;;8.43;3.97;;;;;;;;;;4995311;28;20069;-69
2022/07/16 02:31:28;;;;;;;7.07;3.25;;;;;;;;;;4995113;28;20026;-69
2022/07/16 02:33:54;;;;;;;7.60;3.33;;;;;;;;;;4978120;28;20028;-69
2022/07/16 02:36:20;;;;;;;6.15;3.63;;;;;;;;;;4994022;28;20026;-69
2022/07/16 02:38:46;;;;;;;7.97;3.95;;;;;;;;;;4994950;28;20026;-69
2022/07/16 02:41:12;;;;;;;7.45;3.65;;;;;;;;;;4994891;28;20053;-69
2022/07/16 02:43:38;;;;;;;6.60;3.88;;;;;;;;;;4994811;28;20023;-69
2022/07/16 02:46:04;;;;;;;9.38;3.33;;;;;;;;;;4995029;28;20030;-70
2022/07/16 02:48:30;;;;;;;6.00;3.03;;;;;;;;;;4994979;28;20101;-69
2022/07/16 02:50:56;;;;;;;6.65;3.42;;;;;;;;;;4994683;28;20548;-69
2022/07/16 02:53:22;;;;;;;5.05;3.05;;;;;;;;;;4995169;28;20385;-69
2022/07/16 02:55:48;;;;;;;5.93;3.83;;;;;;;;;;4994613;28;20029;-69
2022/07/16 02:58:14;;;;;;;8.90;3.63;;;;;;;;;;4994560;28;20018;-69
2022/07/16 03:00:40;;;;;;;8.27;3.38;;;;;;;;;;4994724;28;20031;-69
2022/07/16 03:03:06;;;;;;;6.15;3.58;;;;;;;;;;4994284;28;20558;-69
2022/07/16 03:05:32;;;;;;;8.05;3.50;;;;;;;;;;4994728;28;20022;-69
2022/07/16 03:07:58;;;;;;;9.43;3.83;;;;;;;;;;4994351;28;20459;-69
2022/07/16 03:10:24;;;;;;;8.13;3.90;;;;;;;;;;4994570;28;20034;-69
2022/07/16 03:12:50;;;;;;;6.60;3.45;;;;;;;;;;4994324;28;20019;-69
2022/07/16 03:15:16;;;;;;;6.03;3.65;;;;;;;;;;4994263;28;20053;-69
2022/07/16 03:17:42;;;;;;;6.53;3.53;;;;;;;;;;4994296;28;20018;-69
2022/07/16 03:20:11;;;;;;;6.95;3.55;;;;;;;;;;4994732;28;20487;-69
2022/07/16 03:22:37;;;;;;;6.72;3.67;;;;;;;;;;4994627;28;20022;-69
2022/07/16 03:25:03;;;;;;;8.02;3.50;;;;;;;;;;4994096;28;20030;-69
2022/07/16 03:27:29;;;;;;;5.82;3.17;;;;;;;;;;4994091;28;20096;-69
2022/07/16 03:29:55;;;;;;;5.20;3.08;;;;;;;;;;4993969;28;20501;-69
2022/07/16 03:32:21;;;;;;;6.28;3.30;;;;;;;;;;4994273;28;20510;-69
2022/07/16 03:34:47;;;;;;;10.02;3.75;;;;;;;;;;4993981;28;20407;-69
2022/07/16 03:37:13;;;;;;;8.27;3.63;;;;;;;;;;4993978;28;20049;-69
2022/07/16 03:39:39;;;;;;;5.57;3.15;;;;;;;;;;4993908;28;20105;-69
2022/07/16 03:42:05;;;;;;;9.65;3.63;;;;;;;;;;4993879;28;20427;-69
2022/07/16 03:44:31;;;;;;;7.53;3.58;;;;;;;;;;4994494;28;20022;-69
2022/07/16 03:46:57;;;;;;;5.55;3.22;;;;;;;;;;4994134;28;20113;-69
2022/07/16 03:49:23;;;;;;;8.35;3.65;;;;;;;;;;4993799;28;20069;-69
2022/07/16 03:51:49;;;;;;;6.13;3.50;;;;;;;;;;4993775;28;20109;-69
2022/07/16 03:54:15;;;;;;;5.88;3.10;;;;;;;;;;4994064;28;20041;-69
2022/07/16 03:56:41;;;;;;;7.03;3.50;;;;;;;;;;4993775;28;20050;-69
2022/07/16 03:59:10;;;;;;;7.07;3.42;;;;;;;;;;4993728;28;20026;-69
2022/07/16 04:01:36;;;;;;;5.43;3.40;;;;;;;;;;4993769;28;20476;-69
2022/07/16 04:04:02;;;;;;;6.47;3.60;;;;;;;;;;4993306;28;20058;-69
2022/07/16 04:06:28;;;;;;;5.70;3.45;;;;;;;;;;4993942;28;20031;-69
2022/07/16 04:08:54;;;;;;;7.22;3.28;;;;;;;;;;4993599;28;20468;-69
2022/07/16 04:11:20;;;;;;;6.65;3.30;;;;;;;;;;4993643;28;20556;-69
2022/07/16 04:13:46;;;;;;;5.60;3.05;;;;;;;;;;4993671;28;20037;-69
2022/07/16 04:16:12;;;;;;;4.57;2.95;;;;;;;;;;4993928;28;20027;-69
2022/07/16 04:18:38;;;;;;;6.97;3.60;;;;;;;;;;4993549;28;20058;-69
2022/07/16 04:21:05;;;;;;;8.00;3.60;;;;;;;;;;4976135;28;20113;-69
2022/07/16 04:23:32;;;;;;;6.93;3.30;;;;;;;;;;4994313;28;20023;-69
2022/07/16 04:25:58;;;;;;;8.10;2.92;;;;;;;;;;4993460;28;20548;-69
2022/07/16 04:28:24;;;;;;;5.05;3.00;;;;;;;;;;4993425;28;20499;-69
2022/07/16 04:30:50;;;;;;;7.75;3.13;;;;;;;;;;4993458;28;20029;-69
2022/07/16 04:33:16;;;;;;;6.03;3.75;;;;;;;;;;4993709;28;20030;-69
2022/07/16 04:35:42;;;;;;;6.68;3.38;;;;;;;;;;4993666;28;20022;-69
2022/07/16 04:38:08;;;;;;;5.40;3.45;;;;;;;;;;4993919;28;20054;-69
2022/07/16 04:40:34;;;;;;;6.00;3.22;;;;;;;;;;4993671;28;20022;-69
2022/07/16 04:43:00;;;;;;;11.75;4.13;;;;;;;;;;4993320;28;20031;-68
2022/07/16 04:45:26;;;;;;;8.30;3.85;;;;;;;;;;4993563;28;20022;-69
2022/07/16 04:47:52;;;;;;;7.45;3.85;;;;;;;;;;4993357;28;20022;-69
2022/07/16 04:50:18;;;;;;;5.68;3.00;;;;;;;;;;4993280;28;20461;-69
2022/07/16 04:52:44;;;;;;;6.88;3.47;;;;;;;;;;4975810;28;20435;-69
2022/07/16 04:55:10;;;;;;;6.60;3.50;;;;;;;;;;4993271;28;20473;-69
2022/07/16 04:57:36;;;;;;;5.32;3.55;;;;;;;;;;4993274;28;20030;-69
2022/07/16 05:00:03;;;;;;;9.13;3.70;;;;;;;;;;4996630;28;20026;-69
2022/07/16 05:05:14;;;;;;;5.03;2.90;;;;;;;;;;4996716;28;20033;-69
2022/07/16 05:07:40;;;;;;;7.15;3.45;;;;;;;;;;4996656;28;20035;-69
2022/07/16 05:10:06;;;;;;;6.53;3.60;;;;;;;;;;4996498;28;20481;-69
2022/07/16 05:12:32;;;;;;;4.70;3.25;;;;;;;;;;4996586;28;20032;-69
2022/07/16 05:14:58;;;;;;;6.15;3.30;;;;;;;;;;4996460;28;20019;-69
2022/07/16 05:17:24;;;;;;;7.07;3.35;;;;;;;;;;4996771;28;20102;-69
2022/07/16 05:19:50;;;;;;;7.55;3.78;;;;;;;;;;4996679;28;20050;-69
2022/07/16 05:22:16;;;;;;;6.35;3.42;;;;;;;;;;4996849;28;20463;-69
2022/07/16 05:24:42;;;;;;;7.30;4.10;;;;;;;;;;4978898;28;20068;-68
2022/07/16 05:27:08;;;;;;;8.05;3.35;;;;;;;;;;4996560;28;20073;-69
2022/07/16 05:29:34;;;;;;;5.60;3.17;;;;;;;;;;4996442;28;20050;-69
2022/07/16 05:32:00;;;;;;;7.25;3.50;;;;;;;;;;4996200;28;20085;-69
2022/07/16 05:34:26;;;;;;;8.45;3.78;;;;;;;;;;4996416;28;20045;-69
2022/07/16 05:36:52;;;;;;;6.10;3.35;;;;;;;;;;4996137;28;20097;-69
2022/07/16 05:39:18;;;;;;;10.45;4.53;;;;;;;;;;4996103;28;20552;-69
2022/07/16 05:41:44;;;;;;;5.93;3.20;;;;;;;;;;4996073;28;20065;-69
2022/07/16 05:44:10;;;;;;;5.72;3.47;;;;;;;;;;4996546;28;20030;-69
2022/07/16 05:46:36;;;;;;;8.10;3.22;;;;;;;;;;4995947;28;20053;-69
2022/07/16 05:49:02;;;;;;;8.27;3.55;;;;;;;;;;4995784;28;20481;-69
2022/07/16 05:51:28;;;;;;;6.00;3.08;;;;;;;;;;4995836;28;20023;-69
2022/07/16 05:53:55;;;;;;;9.40;3.55;;;;;;;;;;4995810;28;20049;-69
2022/07/16 05:56:21;;;;;;;8.50;3.80;;;;;;;;;;4996006;28;20018;-69
2022/07/16 05:58:47;;;;;;;7.35;3.65;;;;;;;;;;4996243;28;20029;-69
2022/07/16 06:01:13;;;;;;;6.22;3.30;;;;;;;;;;4995585;28;20097;-69
2022/07/16 06:03:39;;;;;;;10.90;3.90;;;;;;;;;;4995395;28;20483;-69
2022/07/16 06:06:05;;;;;;;5.72;3.47;;;;;;;;;;4995595;28;20031;-69
2022/07/16 06:08:32;;;;;;;5.72;2.90;;;;;;;;;;4995990;28;20103;-69
2022/07/16 06:10:59;;;;;;;7.50;3.15;;;;;;;;;;4995548;28;20030;-69
2022/07/16 06:13:25;;;;;;;6.13;2.90;;;;;;;;;;4995680;28;20018;-69
2022/07/16 06:15:51;;;;;;;5.03;2.50;;;;;;;;;;4995379;28;20077;-69
2022/07/16 06:18:17;;;;;;;8.30;2.88;;;;;;;;;;4995345;28;20444;-70
2022/07/16 06:20:44;;;;;;;5.80;2.75;;;;;;;;;;4995311;28;20062;-69
2022/07/16 06:23:10;;;;;;;5.70;2.67;;;;;;;;;;4995855;28;20449;-70
2022/07/16 06:25:37;;;;;;;9.98;2.60;;;;;;;;;;4995206;28;20034;-69
2022/07/16 06:28:03;;;;;;;4.43;2.60;;;;;;;;;;4995180;28;20073;-69
2022/07/16 06:30:29;;;;;;;7.25;2.25;;;;;;;;;;4995080;28;20069;-69
2022/07/16 06:32:56;;;;;;;3.33;2.38;;;;;;;;;;4995093;28;20022;-69
2022/07/16 06:35:22;;;;;;;5.05;2.20;;;;;;;;;;4995072;28;20101;-70
2022/07/16 06:37:48;;;;;;;4.05;2.28;;;;;;;;;;4995250;28;20077;-70
2022/07/16 06:40:14;;;;;;;4.63;2.70;;;;;;;;;;4995240;28;20030;-70
2022/07/16 06:42:40;;;;;;;6.18;2.33;;;;;;;;;;4994938;28;20038;-69
2022/07/16 06:45:06;;;;;;;6.07;2.20;;;;;;;;;;4994824;28;20148;-70
2022/07/16 06:47:32;;;;;;;6.20;2.58;;;;;;;;;;4995360;28;20027;-70
2022/07/16 06:49:58;;;;;;;4.47;1.88;;;;;;;;;;4994650;28;20512;-70
2022/07/16 06:52:24;;;;;;;4.53;2.25;;;;;;;;;;4994974;28;20018;-70
2022/07/16 06:54:50;;;;;;;3.15;2.10;;;;;;;;;;4994630;28;20027;-69
2022/07/16 06:57:16;;;;;;;5.50;2.30;;;;;;;;;;4994608;28;20033;-70
2022/07/16 06:59:42;;;;;;;5.93;2.17;;;;;;;;;;4994527;28;20392;-70
2022/07/16 07:02:08;;;;;;;3.92;2.13;;;;;;;;;;4994492;28;20484;-70
2022/07/16 07:04:34;;;;;;;3.83;2.10;;;;;;;;;;4994496;28;20480;-70
2022/07/16 07:07:00;;;;;;;5.00;2.28;;;;;;;;;;4994430;28;20053;-70
2022/07/16 07:09:26;;;;;;;5.10;2.00;;;;;;;;;;4994554;28;20034;-70
2022/07/16 07:11:52;;;;;;;5.53;2.25;;;;;;;;;;4976882;28;20025;-70
2022/07/16 07:14:18;;;;;;;5.25;2.20;;;;;;;;;;4994866;28;20065;-70
2022/07/16 07:16:44;;;;;;;3.92;2.00;;;;;;;;;;4994554;28;20018;-69
2022/07/16 07:19:10;;;;;;;5.93;2.15;;;;;;;;;;4994504;28;20030;-70
2022/07/16 07:21:36;;;;;;;4.30;1.80;;;;;;;;;;4993962;28;20373;-70
2022/07/16 07:24:03;;;;;;;4.03;1.90;;;;;;;;;;4994636;28;20030;-70
2022/07/16 07:26:29;;;;;;;4.18;1.95;;;;;;;;;;4976763;28;20440;-70
2022/07/16 07:28:55;;;;;;;3.60;1.85;;;;;;;;;;4994081;28;20073;-70
2022/07/16 07:31:21;;;;;;;4.15;2.13;;;;;;;;;;4976663;28;20022;-70
2022/07/16 07:33:47;;;;;;;4.20;2.00;;;;;;;;;;4994306;28;20097;-69
2022/07/16 07:36:13;;;;;;;5.28;2.00;;;;;;;;;;4994025;28;20105;-70
2022/07/16 07:38:39;;;;;;;5.97;1.90;;;;;;;;;;4994079;28;20105;-70
2022/07/16 07:41:05;;;;;;;6.00;2.17;;;;;;;;;;4993984;28;20105;-70
2022/07/16 07:43:31;;;;;;;2.35;1.80;;;;;;;;;;4993940;28;20033;-70
2022/07/16 07:45:57;;;;;;;6.55;1.90;;;;;;;;;;4994154;28;20436;-70
2022/07/16 07:48:23;;;;;;;4.15;1.65;;;;;;;;;;4993814;28;20093;-70
2022/07/16 07:50:49;;;;;;;3.83;1.80;;;;;;;;;;4976419;28;20109;-70
2022/07/16 07:53:15;;;;;;;4.85;1.70;;;;;;;;;;4993816;28;20491;-70
2022/07/16 07:55:41;;;;;;;3.70;1.90;;;;;;;;;;4993825;28;20026;-70
2022/07/16 07:58:08;;;;;;;5.90;1.70;;;;;;;;;;4976354;28;20113;-70
2022/07/16 08:00:34;;;;;;;4.28;1.90;;;;;;;;;;4993965;28;20077;-70
2022/07/16 08:03:00;;;;;;;2.92;1.77;;;;;;;;;;4993534;28;20078;-69
2022/07/16 08:05:26;;;;;;;3.67;1.70;;;;;;;;;;4993702;28;20045;-70
2022/07/16 08:07:52;;;;;;;5.43;2.00;;;;;;;;;;4993671;28;20026;-70
2022/07/16 08:10:18;;;;;;;3.97;1.90;;;;;;;;;;4993578;28;20035;-70
2022/07/16 08:12:44;;;;;;;1.77;1.50;;;;;;;;;;4993702;28;20412;-70
2022/07/16 08:15:11;;;;;;;4.30;1.65;;;;;;;;;;4993913;28;20026;-70
2022/07/16 08:17:37;;;;;;;4.75;1.70;;;;;;;;;;4993579;28;20018;-70
2022/07/16 08:20:04;;;;;;;3.42;1.80;;;;;;;;;;4993867;28;20034;-69
2022/07/16 08:22:30;;;;;;;5.50;2.00;;;;;;;;;;4994127;28;20037;-70
2022/07/16 08:27:41;;;;;;;4.35;1.85;;;;;;;;;;4993544;28;20037;-70
2022/07/16 08:30:07;;;;;;;1.83;1.55;;;;;;;;;;4993396;28;20054;-70
2022/07/16 08:32:33;;;;;;;4.15;1.73;;;;;;;;;;4993751;28;20022;-70
2022/07/16 08:34:59;;;;;;;4.15;2.10;;;;;;;;;;4996908;28;20022;-70
2022/07/16 08:37:35;;;;;;;3.28;1.80;;;;;;;;;;4997474;28;20026;-70
2022/07/16 08:40:03;;;;;;;3.75;1.60;;;;;;;;;;4997498;28;20416;-70
2022/07/16 08:42:30;;;;;;;4.47;2.00;;;;;;;;;;4997133;28;20484;-70
2022/07/16 08:44:57;;;;;;;3.85;1.70;;;;;;;;;;4997009;28;20030;-70
2022/07/16 08:47:23;;;;;;;2.88;1.70;;;;;;;;;;4997044;28;20037;-69
2022/07/16 08:49:50;;;;;;;4.45;1.95;;;;;;;;;;4996914;28;20026;-70
2022/07/16 08:52:18;;;;;;;4.72;1.58;;;;;;;;;;4979483;28;20385;-71
2022/07/16 08:54:45;;;;;;;11.02;2.05;;;;;;;;;;4996958;28;20072;-70
2022/07/16 08:57:12;;;;;;;3.65;1.92;;;;;;;;;;4996859;28;20085;-70
2022/07/16 08:59:38;;;;;;;3.15;1.63;;;;;;;;;;4996950;28;20030;-70
2022/07/16 09:02:04;;;;;;;2.35;1.60;;;;;;;;;;4979274;28;20404;-70
2022/07/16 09:04:30;;;;;;;3.85;1.88;;;;;;;;;;4996620;28;20419;-70
2022/07/16 09:06:56;;;;;;;3.85;1.40;;;;;;;;;;4996692;28;20393;-70
2022/07/16 09:09:22;;;;;;;3.20;1.48;;;;;;;;;;4996576;28;20049;-70
2022/07/16 09:11:48;;;;;;;5.25;1.85;;;;;;;;;;4996953;28;20019;-70
2022/07/16 09:14:15;;;;;;;5.25;1.77;;;;;;;;;;4996589;28;20046;-70
2022/07/16 09:16:42;;;;;;;5.03;1.73;;;;;;;;;;4996522;28;20026;-70
2022/07/16 09:19:22;;;;;;;5.03;1.88;;;;;;;;;;4996479;28;20034;-70
2022/07/16 09:21:59;;;;;;;2.63;1.67;;;;;;;;;;4996782;28;20037;-70
2022/07/16 09:24:54;;;;;;;3.95;1.75;;;;;;;;;;4997132;28;20505;-70
2022/07/16 09:27:27;;;;;;;6.15;1.83;;;;;;;;;;4994350;28;20046;-70
2022/07/16 09:29:53;;;;;;;3.28;1.88;;;;;;;;;;4996732;28;20022;-70
2022/07/16 09:32:34;;;;;;;4.57;1.65;;;;;;;;;;4996534;28;20495;-70
2022/07/16 09:35:10;;;;;;;3.53;1.63;;;;;;;;;;4996208;28;20444;-70
2022/07/16 09:37:51;;;;;;;3.95;1.67;;;;;;;;;;4996430;28;20543;-70
2022/07/16 09:40:29;;;;;;;3.75;2.00;;;;;;;;;;4996109;28;20029;-70
2022/07/16 09:42:55;;;;;;;3.15;1.90;;;;;;;;;;4996020;28;20041;-71
2022/07/16 09:45:22;;;;;;;2.17;1.88;;;;;;;;;;4995710;28;20026;-70
2022/07/16 09:47:48;;;;;;;4.43;1.50;;;;;;;;;;4996222;28;20026;-70
2022/07/16 09:50:14;;;;;;;4.10;2.08;;;;;;;;;;4995813;28;20039;-70
2022/07/16 09:52:40;;;;;;;4.00;1.80;;;;;;;;;;4995847;28;20022;-70
2022/07/16 09:55:07;;;;;;;3.85;1.83;;;;;;;;;;4995776;28;20050;-70
2022/07/16 09:57:33;;;;;;;3.30;1.80;;;;;;;;;;4995803;28;20026;-70
2022/07/16 10:00:00;;;;;;;1.98;1.77;;;;;;;;;;4995582;28;20026;-70
2022/07/16 10:02:27;;;;;;;4.07;2.08;;;;;;;;;;4995716;28;20041;-70
2022/07/16 10:04:53;;;;;;;4.72;2.10;;;;;;;;;;4996216;28;20033;-70
2022/07/16 10:07:19;;;;;;;2.78;1.80;;;;;;;;;;4995892;28;20038;-71
2022/07/16 10:09:46;;;;;;;5.28;1.98;;;;;;;;;;4995807;28;20027;-70
2022/07/16 10:12:16;;;;;;;4.30;1.63;;;;;;;;;;4995738;28;20491;-70
2022/07/16 10:14:53;;;;;;;5.78;2.03;;;;;;;;;;4995420;28;20027;-70
2022/07/16 10:17:20;;;;;;;6.88;1.77;;;;;;;;;;4995656;28;20392;-70
2022/07/16 10:19:56;;;;;;;2.95;1.60;;;;;;;;;;4995609;28;20030;-70
2022/07/16 10:22:27;;;;;;;3.55;1.70;;;;;;;;;;4995606;28;20473;-70
2022/07/16 10:24:54;;;;;;;2.15;1.50;;;;;;;;;;4995768;28;20027;-70
2022/07/16 10:27:24;;;;;;;3.95;1.60;;;;;;;;;;4995252;28;20504;-70
2022/07/16 10:29:50;;;;;;;3.80;1.83;;;;;;;;;;4995349;28;20485;-70
2022/07/16 10:32:29;;;;;;;2.63;1.77;;;;;;;;;;4995382;28;20054;-70
2022/07/16 10:34:55;;;;;;;2.70;1.80;;;;;;;;;;4995679;28;20045;-70
2022/07/16 10:37:33;;;;;;;2.85;1.60;;;;;;;;;;4977570;28;20019;-70
2022/07/16 10:40:12;;;;;;;3.72;1.73;;;;;;;;;;4995253;28;20037;-70
2022/07/16 10:42:38;;;;;;;;;;;;;;;;;;4995927;28;20022;-70
2022/07/16 10:45:05;;;;;;;2.97;1.67;;;;;;;;;;4994900;28;20336;-70
2022/07/16 10:47:44;;;;;;;5.18;1.70;;;;;;;;;;4995045;28;20037;-70
2022/07/16 10:50:20;;;;;;;4.22;1.98;;;;;;;;;;4994704;28;20072;-70
2022/07/16 10:52:48;;;;;;;3.25;1.80;;;;;;;;;;4994752;28;20117;-70
2022/07/16 10:55:18;;;;;;;2.60;1.70;;;;;;;;;;4994423;28;20026;-70
2022/07/16 10:57:44;;;;;;;1.88;1.55;;;;;;;;;;4994191;28;20097;-70
2022/07/16 11:00:11;;;;;;;3.47;1.60;;;;;;;;;;4994692;28;20081;-69
2022/07/16 11:02:38;;;;;;;3.65;1.85;;;;;;;;;;4994565;28;20046;-70
2022/07/16 11:05:06;;;;;;;5.07;1.60;;;;;;;;;;4994773;28;20050;-70
2022/07/16 11:07:36;;;;;;;2.75;1.95;;;;;;;;;;4994440;28;20137;-70
2022/07/16 11:10:04;;;;;;;10.45;2.08;;;;;;;;;;4994643;28;20455;-69
2022/07/16 11:12:31;;;;;;;4.22;1.80;;;;;;;;;;4994683;28;20465;-70
2022/07/16 11:14:57;;;;;;;2.60;1.52;;;;;;;;;;4994242;28;20102;-70
2022/07/16 11:17:24;;;;;;;2.42;1.52;;;;;;;;;;4994316;28;20484;-70
2022/07/16 11:19:51;;;;;;;3.88;1.77;;;;;;;;;;4994268;28;20033;-69
2022/07/16 11:22:20;;;;;;;3.75;1.80;;;;;;;;;;4994198;28;20041;-70
2022/07/16 11:24:47;;;;;;;3.58;1.70;;;;;;;;;;4994716;28;20026;-70
2022/07/16 11:27:13;;;;;;;4.50;1.85;;;;;;;;;;4994663;28;20512;-70
2022/07/16 11:29:39;;;;;;;3.47;1.73;;;;;;;;;;4994086;28;20398;-70
2022/07/16 11:32:06;;;;;;;3.85;1.70;;;;;;;;;;4994346;28;20026;-70
2022/07/16 11:34:33;;;;;;;3.38;1.80;;;;;;;;;;4994628;28;20034;-70
2022/07/16 11:36:59;;;;;;;2.45;1.75;;;;;;;;;;4994329;28;20022;-70
2022/07/16 11:39:26;;;;;;;5.20;1.88;;;;;;;;;;4994226;28;20023;-70
2022/07/16 11:41:53;;;;;;;2.45;1.58;;;;;;;;;;4993973;28;20026;-70
2022/07/16 11:44:21;;;;;;;3.40;1.88;;;;;;;;;;4993940;28;20459;-70
2022/07/16 11:46:48;;;;;;;2.70;1.60;;;;;;;;;;4993944;28;20064;-69
2022/07/16 11:49:29;;;;;;;4.25;2.17;;;;;;;;;;4994079;28;20027;-70
2022/07/16 11:51:57;;;;;;;3.53;1.50;;;;;;;;;;4993861;28;20033;-70
2022/07/16 11:54:24;;;;;;;2.95;1.90;;;;;;;;;;4993798;28;20027;-70
2022/07/16 11:56:50;;;;;;;3.50;2.00;;;;;;;;;;4976341;28;20405;-69
2022/07/16 11:59:21;;;;;;;6.03;2.65;;;;;;;;;;4993699;28;20031;-70
2022/07/16 12:01:47;;;;;;;3.42;1.77;;;;;;;;;;4994027;28;20027;-70
2022/07/16 12:04:13;;;;;;;2.97;1.75;;;;;;;;;;4993627;28;20046;-69
2022/07/16 12:06:45;;;;;;;2.65;1.88;;;;;;;;;;4993669;28;20468;-70
2022/07/16 12:09:11;;;;;;;3.10;1.95;;;;;;;;;;4997564;28;20455;-69
2022/07/16 12:11:37;;;;;;;3.83;1.83;;;;;;;;;;4997672;28;20080;-70
2022/07/16 12:14:03;;;;;;;2.40;1.70;;;;;;;;;;4997627;28;20481;-70
2022/07/16 12:16:29;;;;;;;3.63;1.75;;;;;;;;;;4997892;28;20023;-70
2022/07/16 12:19:16;;;;;;;3.70;1.77;;;;;;;;;;4997849;28;20034;-70
2022/07/16 12:21:42;;;;;;;4.05;1.80;;;;;;;;;;4997851;28;20030;-69
2022/07/16 12:24:08;;;;;;;2.47;1.80;;;;;;;;;;4998052;28;20062;-69
2022/07/16 12:26:38;;;;;;;2.95;2.00;;;;;;;;;;4997481;28;20022;-69
2022/07/16 12:29:06;;;;;;;3.97;2.00;;;;;;;;;;4997648;28;20041;-70
2022/07/16 12:31:33;;;;;;;1.90;1.60;;;;;;;;;;4997971;28;20558;-70
2022/07/16 12:34:00;;;;;;;2.38;1.70;;;;;;;;;;4997297;28;20101;-70
2022/07/16 12:36:31;;;;;;;3.88;2.00;;;;;;;;;;4997517;28;20117;-69
2022/07/16 12:39:02;;;;;;;3.47;1.73;;;;;;;;;;4997446;28;20058;-69
2022/07/16 12:41:32;;;;;;;4.32;1.90;;;;;;;;;;4997233;28;20507;-69
2022/07/16 12:44:00;;;;;;;3.70;2.05;;;;;;;;;;4997127;28;20041;-69
2022/07/16 12:46:27;;;;;;;4.32;2.10;;;;;;;;;;4997090;28;20408;-70
2022/07/16 12:48:59;;;;;;;3.72;2.10;;;;;;;;;;4997026;28;20467;-70
2022/07/16 12:51:27;;;;;;;3.13;1.75;;;;;;;;;;4997299;28;20046;-70
2022/07/16 12:53:54;;;;;;;1.88;1.60;;;;;;;;;;4996942;28;20392;-70
2022/07/16 12:59:05;;;;;;;6.65;2.33;;;;;;;;;;4997420;28;20426;-69
2022/07/16 13:01:32;;;;;;;4.03;2.45;;;;;;;;;;4996787;28;20026;-69
2022/07/16 13:03:58;;;;;;;5.55;2.20;;;;;;;;;;4996599;28;20054;-70
2022/07/16 13:06:24;;;;;;;2.47;1.92;;;;;;;;;;4996774;28;20022;-70
2022/07/16 13:08:51;;;;;;;3.17;1.90;;;;;;;;;;4996594;28;20030;-70
2022/07/16 13:11:18;;;;;;;4.90;1.73;;;;;;;;;;4996914;28;20057;-70
2022/07/16 13:13:45;;;;;;;3.88;1.98;;;;;;;;;;4996565;28;20462;-70
2022/07/16 13:16:11;;;;;;;3.75;2.10;;;;;;;;;;4996839;28;20101;-70
2022/07/16 13:18:38;;;;;;;4.90;2.30;;;;;;;;;;4996116;28;20034;-70
2022/07/16 13:21:04;;;;;;;2.67;2.13;;;;;;;;;;4978771;28;20026;-70
2022/07/16 13:23:31;;;;;;;5.72;2.38;;;;;;;;;;4996932;28;20034;-70
2022/07/16 13:25:57;;;;;;;2.28;2.05;;;;;;;;;;4996659;28;20073;-70
2022/07/16 13:28:23;;;;;;;4.78;2.50;;;;;;;;;;4996290;28;20030;-69
2022/07/16 13:30:49;;;;;;;5.63;2.30;;;;;;;;;;4996221;28;20058;-70
2022/07/16 13:33:16;;;;;;;3.17;2.00;;;;;;;;;;4996533;28;20058;-70
2022/07/16 13:35:42;;;;;;;5.00;2.10;;;;;;;;;;4978715;28;20404;-70
2022/07/16 13:38:08;;;;;;;5.10;2.30;;;;;;;;;;4996129;28;20105;-70
2022/07/16 13:40:35;;;;;;;3.17;2.47;;;;;;;;;;4996166;28;20030;-70
2022/07/16 13:43:01;;;;;;;4.22;2.40;;;;;;;;;;4996063;28;20444;-70
2022/07/16 13:45:27;;;;;;;4.18;2.42;;;;;;;;;;4996268;28;20425;-70
2022/07/16 13:47:53;;;;;;;2.88;2.00;;;;;;;;;;4996216;28;20419;-70
2022/07/16 13:50:20;;;;;;;4.55;2.08;;;;;;;;;;4996118;28;20058;-70
2022/07/16 13:52:46;;;;;;;4.68;2.33;;;;;;;;;;4996216;28;20054;-69
2022/07/16 13:55:12;;;;;;;4.10;2.20;;;;;;;;;;4995882;28;20030;-70
2022/07/16 14:00:25;;;;;;;5.32;2.38;;;;;;;;;;4995881;28;20033;-70
2022/07/16 14:02:51;;;;;;;3.63;2.35;;;;;;;;;;4995717;28;20050;-70
2022/07/16 14:05:17;;;;;;;4.63;2.80;;;;;;;;;;4995667;28;20026;-69
2022/07/16 14:07:43;;;;;;;4.80;2.25;;;;;;;;;;4978120;28;20117;-70
2022/07/16 14:10:11;;;;;;;4.82;2.65;;;;;;;;;;4995452;28;20108;-70
2022/07/16 14:12:37;;;;;;;3.95;2.40;;;;;;;;;;4995574;28;20037;-69
2022/07/16 14:15:03;;;;;;;5.05;2.70;;;;;;;;;;4995458;28;20026;-70
2022/07/16 14:17:29;;;;;;;2.85;2.05;;;;;;;;;;4995670;28;20030;-70
2022/07/16 14:19:55;;;;;;;8.98;2.67;;;;;;;;;;4995348;28;20026;-69
2022/07/16 14:22:21;;;;;;;3.47;2.60;;;;;;;;;;4995308;28;20378;-69
2022/07/16 14:24:47;;;;;;;6.05;2.50;;;;;;;;;;4995689;28;20026;-70
2022/07/16 14:27:13;;;;;;;5.22;2.97;;;;;;;;;;4995501;28;20034;-70
2022/07/16 14:29:39;;;;;;;5.40;2.58;;;;;;;;;;4995058;28;20535;-70
2022/07/16 14:32:08;;;;;;;3.92;2.28;;;;;;;;;;4995081;28;20050;-70
2022/07/16 14:34:34;;;;;;;4.03;2.70;;;;;;;;;;4995058;28;20056;-69
2022/07/16 14:37:00;;;;;;;5.05;2.78;;;;;;;;;;4995013;28;20030;-70
2022/07/16 14:39:26;;;;;;;3.78;2.30;;;;;;;;;;4995041;28;20026;-70
2022/07/16 14:41:52;;;;;;;3.33;2.40;;;;;;;;;;4994868;28;20042;-69
2022/07/16 14:44:18;;;;;;;3.42;2.38;;;;;;;;;;4994944;28;20026;-70
2022/07/16 14:46:44;;;;;;;5.15;2.45;;;;;;;;;;4994907;28;20099;-69
2022/07/16 14:49:10;;;;;;;4.25;2.50;;;;;;;;;;4994737;28;20041;-70
2022/07/16 14:51:38;;;;;;;7.65;2.92;;;;;;;;;;4994819;28;20488;-70
2022/07/16 14:54:04;;;;;;;4.85;2.80;;;;;;;;;;4994698;28;20014;-70